sensor_id;sensor_type;location;lat;lon;timestamp;P1;durP1;ratioP1;P2;durP2;ratioP2
13197;SDS011;6664;52.514;13.440;2023-01-29T00:00:27;6.97;;;3.97;;
13197;SDS011;6664;52.514;13.440;2023-01-29T00:03:14;3.73;;;3.30;;
13197;SDS011;6664;52.514;13.440;2023-01-29T00:06:03;6.07;;;3.40;;
13197;SDS011;6664;52.514;13.440;2023-01-29T00:08:50;4.40;;;3.90;;
13197;SDS011;6664;52.514;13.440;2023-01-29T00:11:36;3.50;;;3.20;;
13197;SDS011;6664;52.514;13.440;2023-01-29T00:14:22;4.03;;;3.60;;
13197;SDS011;6664;52.514;13.440;2023-01-29T00:17:13;4.67;;;3.40;;
13197;SDS011;6664;52.514;13.440;2023-01-29T00:20:01;3.80;;;3.40;;
13197;SDS011;6664;52.514;13.440;2023-01-29T00:22:47;4.00;;;3.60;;
13197;SDS011;6664;52.514;13.440;2023-01-29T00:25:32;4.57;;;4.00;;
13197;SDS011;6664;52.514;13.440;2023-01-29T00:28:19;4.90;;;4.10;;
13197;SDS011;6664;52.514;13.440;2023-01-29T00:31:05;4.57;;;3.40;;
13197;SDS011;6664;52.514;13.440;2023-01-29T00:33:59;4.20;;;3.90;;
13197;SDS011;6664;52.514;13.440;2023-01-29T00:36:45;4.33;;;3.03;;
13197;SDS011;6664;52.514;13.440;2023-01-29T00:39:32;3.40;;;2.70;;
13197;SDS011;6664;52.514;13.440;2023-01-29T00:42:31;4.53;;;4.13;;
13197;SDS011;6664;52.514;13.440;2023-01-29T00:45:40;5.73;;;4.20;;
13197;SDS011;6664;52.514;13.440;2023-01-29T00:48:25;9.33;;;4.13;;
13197;SDS011;6664;52.514;13.440;2023-01-29T00:51:13;5.67;;;4.50;;
13197;SDS011;6664;52.514;13.440;2023-01-29T00:54:01;4.93;;;4.43;;
13197;SDS011;6664;52.514;13.440;2023-01-29T00:56:50;5.90;;;4.10;;
13197;SDS011;6664;52.514;13.440;2023-01-29T00:59:38;7.03;;;4.23;;
13197;SDS011;6664;52.514;13.440;2023-01-29T01:02:25;5.23;;;4.60;;
13197;SDS011;6664;52.514;13.440;2023-01-29T01:05:30;5.30;;;3.77;;
13197;SDS011;6664;52.514;13.440;2023-01-29T01:08:16;5.10;;;4.50;;
13197;SDS011;6664;52.514;13.440;2023-01-29T01:11:20;5.90;;;4.87;;
13197;SDS011;6664;52.514;13.440;2023-01-29T01:14:06;7.13;;;4.70;;
13197;SDS011;6664;52.514;13.440;2023-01-29T01:16:52;7.50;;;4.70;;
13197;SDS011;6664;52.514;13.440;2023-01-29T01:19:37;7.93;;;4.50;;
13197;SDS011;6664;52.514;13.440;2023-01-29T01:22:22;7.93;;;5.00;;
13197;SDS011;6664;52.514;13.440;2023-01-29T01:25:10;5.80;;;4.30;;
13197;SDS011;6664;52.514;13.440;2023-01-29T01:27:56;6.43;;;5.13;;
13197;SDS011;6664;52.514;13.440;2023-01-29T01:30:47;7.00;;;4.90;;
13197;SDS011;6664;52.514;13.440;2023-01-29T01:33:35;7.07;;;5.03;;
13197;SDS011;6664;52.514;13.440;2023-01-29T01:36:22;6.83;;;5.20;;
13197;SDS011;6664;52.514;13.440;2023-01-29T01:39:12;6.87;;;4.80;;
13197;SDS011;6664;52.514;13.440;2023-01-29T01:41:58;7.33;;;5.30;;
13197;SDS011;6664;52.514;13.440;2023-01-29T01:44:55;8.30;;;5.20;;
13197;SDS011;6664;52.514;13.440;2023-01-29T01:47:49;8.20;;;5.60;;
13197;SDS011;6664;52.514;13.440;2023-01-29T01:53:41;12.60;;;6.73;;
13197;SDS011;6664;52.514;13.440;2023-01-29T01:56:32;10.33;;;5.83;;
13197;SDS011;6664;52.514;13.440;2023-01-29T01:59:25;6.67;;;5.73;;
13197;SDS011;6664;52.514;13.440;2023-01-29T02:02:11;7.77;;;5.50;;
13197;SDS011;6664;52.514;13.440;2023-01-29T02:05:16;9.40;;;6.13;;
13197;SDS011;6664;52.514;13.440;2023-01-29T02:08:43;7.20;;;5.63;;
13197;SDS011;6664;52.514;13.440;2023-01-29T02:11:52;11.50;;;5.50;;
13197;SDS011;6664;52.514;13.440;2023-01-29T02:14:40;6.30;;;5.03;;
13197;SDS011;6664;52.514;13.440;2023-01-29T02:17:27;6.17;;;4.97;;
13197;SDS011;6664;52.514;13.440;2023-01-29T02:29:24;6.10;;;5.17;;
13197;SDS011;6664;52.514;13.440;2023-01-29T02:32:40;7.67;;;5.97;;
13197;SDS011;6664;52.514;13.440;2023-01-29T02:35:44;9.00;;;5.27;;
13197;SDS011;6664;52.514;13.440;2023-01-29T02:41:45;8.40;;;5.90;;
13197;SDS011;6664;52.514;13.440;2023-01-29T02:48:02;7.40;;;5.07;;
13197;SDS011;6664;52.514;13.440;2023-01-29T02:50:49;7.37;;;5.90;;
13197;SDS011;6664;52.514;13.440;2023-01-29T02:56:57;7.50;;;5.17;;
13197;SDS011;6664;52.514;13.440;2023-01-29T03:02:37;7.50;;;5.43;;
13197;SDS011;6664;52.514;13.440;2023-01-29T03:05:31;7.13;;;5.53;;
13197;SDS011;6664;52.514;13.440;2023-01-29T03:08:17;9.40;;;5.80;;
13197;SDS011;6664;52.514;13.440;2023-01-29T03:11:13;6.93;;;5.30;;
13197;SDS011;6664;52.514;13.440;2023-01-29T03:14:05;6.90;;;5.63;;
13197;SDS011;6664;52.514;13.440;2023-01-29T03:16:52;9.23;;;6.13;;
13197;SDS011;6664;52.514;13.440;2023-01-29T03:19:39;9.33;;;6.27;;
13197;SDS011;6664;52.514;13.440;2023-01-29T03:22:33;6.67;;;5.00;;
13197;SDS011;6664;52.514;13.440;2023-01-29T03:25:20;19.30;;;6.73;;
13197;SDS011;6664;52.514;13.440;2023-01-29T03:28:27;11.00;;;6.57;;
13197;SDS011;6664;52.514;13.440;2023-01-29T03:31:32;8.23;;;6.50;;
13197;SDS011;6664;52.514;13.440;2023-01-29T03:34:42;9.40;;;5.90;;
13197;SDS011;6664;52.514;13.440;2023-01-29T03:37:37;7.33;;;5.23;;
13197;SDS011;6664;52.514;13.440;2023-01-29T03:40:34;9.10;;;5.53;;
13197;SDS011;6664;52.514;13.440;2023-01-29T03:43:43;6.80;;;5.60;;
13197;SDS011;6664;52.514;13.440;2023-01-29T03:46:38;8.97;;;5.47;;
13197;SDS011;6664;52.514;13.440;2023-01-29T03:49:31;12.77;;;6.30;;
13197;SDS011;6664;52.514;13.440;2023-01-29T03:52:47;6.70;;;5.20;;
13197;SDS011;6664;52.514;13.440;2023-01-29T03:55:39;8.13;;;5.77;;
13197;SDS011;6664;52.514;13.440;2023-01-29T03:58:39;8.57;;;4.97;;
13197;SDS011;6664;52.514;13.440;2023-01-29T04:01:39;9.53;;;6.10;;
13197;SDS011;6664;52.514;13.440;2023-01-29T04:04:35;11.53;;;6.40;;
13197;SDS011;6664;52.514;13.440;2023-01-29T04:07:23;7.23;;;5.97;;
13197;SDS011;6664;52.514;13.440;2023-01-29T04:10:11;6.23;;;5.23;;
13197;SDS011;6664;52.514;13.440;2023-01-29T04:13:08;6.37;;;5.30;;
13197;SDS011;6664;52.514;13.440;2023-01-29T04:15:58;8.10;;;5.97;;
13197;SDS011;6664;52.514;13.440;2023-01-29T04:18:46;8.53;;;6.00;;
13197;SDS011;6664;52.514;13.440;2023-01-29T04:21:32;12.00;;;5.77;;
13197;SDS011;6664;52.514;13.440;2023-01-29T04:24:22;7.70;;;5.33;;
13197;SDS011;6664;52.514;13.440;2023-01-29T04:27:32;8.90;;;5.83;;
13197;SDS011;6664;52.514;13.440;2023-01-29T04:30:32;8.60;;;5.97;;
13197;SDS011;6664;52.514;13.440;2023-01-29T04:36:39;8.73;;;5.97;;
13197;SDS011;6664;52.514;13.440;2023-01-29T04:39:48;8.73;;;6.10;;
13197;SDS011;6664;52.514;13.440;2023-01-29T04:42:49;8.30;;;5.90;;
13197;SDS011;6664;52.514;13.440;2023-01-29T04:52:23;8.73;;;6.33;;
13197;SDS011;6664;52.514;13.440;2023-01-29T04:55:41;9.73;;;6.47;;
13197;SDS011;6664;52.514;13.440;2023-01-29T04:58:41;6.73;;;5.10;;
13197;SDS011;6664;52.514;13.440;2023-01-29T05:01:31;9.97;;;6.87;;
13197;SDS011;6664;52.514;13.440;2023-01-29T05:04:19;10.13;;;6.30;;
13197;SDS011;6664;52.514;13.440;2023-01-29T05:07:10;10.47;;;6.03;;
13197;SDS011;6664;52.514;13.440;2023-01-29T05:09:57;8.63;;;5.87;;
13197;SDS011;6664;52.514;13.440;2023-01-29T05:12:44;7.90;;;6.17;;
13197;SDS011;6664;52.514;13.440;2023-01-29T05:15:38;15.00;;;7.00;;
13197;SDS011;6664;52.514;13.440;2023-01-29T05:18:26;8.83;;;6.60;;
13197;SDS011;6664;52.514;13.440;2023-01-29T05:21:13;12.30;;;6.50;;
13197;SDS011;6664;52.514;13.440;2023-01-29T05:24:04;10.60;;;6.43;;
13197;SDS011;6664;52.514;13.440;2023-01-29T05:26:53;12.97;;;7.40;;
13197;SDS011;6664;52.514;13.440;2023-01-29T05:29:57;10.60;;;7.23;;
13197;SDS011;6664;52.514;13.440;2023-01-29T05:32:42;12.60;;;6.27;;
13197;SDS011;6664;52.514;13.440;2023-01-29T05:35:28;9.93;;;6.80;;
13197;SDS011;6664;52.514;13.440;2023-01-29T05:38:14;13.30;;;6.70;;
13197;SDS011;6664;52.514;13.440;2023-01-29T05:41:02;10.47;;;6.70;;
13197;SDS011;6664;52.514;13.440;2023-01-29T05:43:48;12.10;;;7.47;;
13197;SDS011;6664;52.514;13.440;2023-01-29T05:46:34;10.10;;;6.40;;
13197;SDS011;6664;52.514;13.440;2023-01-29T05:49:22;18.53;;;7.07;;
13197;SDS011;6664;52.514;13.440;2023-01-29T05:52:08;18.00;;;6.40;;
13197;SDS011;6664;52.514;13.440;2023-01-29T05:54:53;11.50;;;7.10;;
13197;SDS011;6664;52.514;13.440;2023-01-29T05:57:39;11.63;;;6.73;;
13197;SDS011;6664;52.514;13.440;2023-01-29T06:00:27;10.23;;;6.90;;
13197;SDS011;6664;52.514;13.440;2023-01-29T06:03:14;11.73;;;7.30;;
13197;SDS011;6664;52.514;13.440;2023-01-29T06:06:00;12.47;;;7.70;;
13197;SDS011;6664;52.514;13.440;2023-01-29T06:08:46;14.90;;;7.50;;
13197;SDS011;6664;52.514;13.440;2023-01-29T06:11:34;13.77;;;7.80;;
13197;SDS011;6664;52.514;13.440;2023-01-29T06:14:21;10.43;;;7.10;;
13197;SDS011;6664;52.514;13.440;2023-01-29T06:17:09;12.70;;;7.93;;
13197;SDS011;6664;52.514;13.440;2023-01-29T06:19:55;15.70;;;8.10;;
13197;SDS011;6664;52.514;13.440;2023-01-29T06:22:42;17.33;;;8.67;;
13197;SDS011;6664;52.514;13.440;2023-01-29T06:25:30;17.37;;;8.33;;
13197;SDS011;6664;52.514;13.440;2023-01-29T06:28:15;11.60;;;7.13;;
13197;SDS011;6664;52.514;13.440;2023-01-29T06:31:02;13.07;;;8.20;;
13197;SDS011;6664;52.514;13.440;2023-01-29T06:34:09;16.80;;;8.67;;
13197;SDS011;6664;52.514;13.440;2023-01-29T06:36:55;10.93;;;8.30;;
13197;SDS011;6664;52.514;13.440;2023-01-29T06:39:40;11.30;;;8.27;;
13197;SDS011;6664;52.514;13.440;2023-01-29T06:42:26;12.20;;;7.83;;
13197;SDS011;6664;52.514;13.440;2023-01-29T06:45:12;11.03;;;7.87;;
13197;SDS011;6664;52.514;13.440;2023-01-29T06:47:58;14.43;;;8.40;;
13197;SDS011;6664;52.514;13.440;2023-01-29T06:50:48;13.40;;;7.87;;
13197;SDS011;6664;52.514;13.440;2023-01-29T06:53:39;13.50;;;8.60;;
13197;SDS011;6664;52.514;13.440;2023-01-29T06:56:28;18.33;;;6.97;;
13197;SDS011;6664;52.514;13.440;2023-01-29T06:59:13;12.60;;;7.67;;
13197;SDS011;6664;52.514;13.440;2023-01-29T07:01:59;12.30;;;8.73;;
13197;SDS011;6664;52.514;13.440;2023-01-29T07:04:47;13.90;;;9.33;;
13197;SDS011;6664;52.514;13.440;2023-01-29T07:07:34;16.50;;;8.70;;
13197;SDS011;6664;52.514;13.440;2023-01-29T07:10:20;13.50;;;8.83;;
13197;SDS011;6664;52.514;13.440;2023-01-29T07:13:05;15.53;;;9.23;;
13197;SDS011;6664;52.514;13.440;2023-01-29T07:15:53;14.50;;;8.70;;
13197;SDS011;6664;52.514;13.440;2023-01-29T07:18:44;12.20;;;8.53;;
13197;SDS011;6664;52.514;13.440;2023-01-29T07:21:30;12.20;;;8.20;;
13197;SDS011;6664;52.514;13.440;2023-01-29T07:24:15;13.80;;;8.20;;
13197;SDS011;6664;52.514;13.440;2023-01-29T07:27:01;13.70;;;7.43;;
13197;SDS011;6664;52.514;13.440;2023-01-29T07:29:46;11.70;;;7.10;;
13197;SDS011;6664;52.514;13.440;2023-01-29T07:32:31;15.17;;;9.40;;
13197;SDS011;6664;52.514;13.440;2023-01-29T07:35:17;15.83;;;8.53;;
13197;SDS011;6664;52.514;13.440;2023-01-29T07:38:02;13.30;;;8.33;;
13197;SDS011;6664;52.514;13.440;2023-01-29T07:40:48;13.43;;;7.80;;
13197;SDS011;6664;52.514;13.440;2023-01-29T07:43:37;15.67;;;8.83;;
13197;SDS011;6664;52.514;13.440;2023-01-29T07:46:23;12.53;;;8.77;;
13197;SDS011;6664;52.514;13.440;2023-01-29T07:49:10;11.83;;;7.47;;
13197;SDS011;6664;52.514;13.440;2023-01-29T07:51:58;13.80;;;8.63;;
13197;SDS011;6664;52.514;13.440;2023-01-29T07:54:43;16.07;;;8.17;;
13197;SDS011;6664;52.514;13.440;2023-01-29T07:57:32;13.67;;;8.07;;
13197;SDS011;6664;52.514;13.440;2023-01-29T08:00:17;17.10;;;8.17;;
13197;SDS011;6664;52.514;13.440;2023-01-29T08:03:05;14.47;;;9.53;;
13197;SDS011;6664;52.514;13.440;2023-01-29T08:05:53;12.80;;;8.90;;
13197;SDS011;6664;52.514;13.440;2023-01-29T08:08:41;13.63;;;8.70;;
13197;SDS011;6664;52.514;13.440;2023-01-29T08:11:27;13.73;;;8.90;;
13197;SDS011;6664;52.514;13.440;2023-01-29T08:14:15;11.67;;;7.43;;
13197;SDS011;6664;52.514;13.440;2023-01-29T08:17:01;12.70;;;8.20;;
13197;SDS011;6664;52.514;13.440;2023-01-29T08:19:46;14.43;;;8.93;;
13197;SDS011;6664;52.514;13.440;2023-01-29T08:22:32;15.50;;;9.20;;
13197;SDS011;6664;52.514;13.440;2023-01-29T08:25:17;16.17;;;8.70;;
13197;SDS011;6664;52.514;13.440;2023-01-29T08:28:05;12.53;;;7.57;;
13197;SDS011;6664;52.514;13.440;2023-01-29T08:30:50;15.47;;;9.40;;
13197;SDS011;6664;52.514;13.440;2023-01-29T08:33:36;14.10;;;9.43;;
13197;SDS011;6664;52.514;13.440;2023-01-29T08:36:24;11.40;;;7.93;;
13197;SDS011;6664;52.514;13.440;2023-01-29T08:39:10;14.70;;;7.83;;
13197;SDS011;6664;52.514;13.440;2023-01-29T08:41:56;15.90;;;8.97;;
13197;SDS011;6664;52.514;13.440;2023-01-29T08:44:41;16.73;;;9.20;;
13197;SDS011;6664;52.514;13.440;2023-01-29T08:47:29;15.70;;;8.63;;
13197;SDS011;6664;52.514;13.440;2023-01-29T08:50:15;15.27;;;8.50;;
13197;SDS011;6664;52.514;13.440;2023-01-29T08:53:05;12.43;;;8.20;;
13197;SDS011;6664;52.514;13.440;2023-01-29T08:55:52;11.63;;;7.53;;
13197;SDS011;6664;52.514;13.440;2023-01-29T08:58:38;13.43;;;8.67;;
13197;SDS011;6664;52.514;13.440;2023-01-29T09:01:23;15.90;;;9.77;;
13197;SDS011;6664;52.514;13.440;2023-01-29T09:04:09;12.70;;;8.80;;
13197;SDS011;6664;52.514;13.440;2023-01-29T09:06:54;15.53;;;8.93;;
13197;SDS011;6664;52.514;13.440;2023-01-29T09:09:40;15.73;;;9.27;;
13197;SDS011;6664;52.514;13.440;2023-01-29T09:12:25;15.37;;;8.60;;
13197;SDS011;6664;52.514;13.440;2023-01-29T09:15:11;15.80;;;7.80;;
13197;SDS011;6664;52.514;13.440;2023-01-29T09:17:57;16.10;;;8.33;;
13197;SDS011;6664;52.514;13.440;2023-01-29T09:20:42;12.13;;;8.23;;
13197;SDS011;6664;52.514;13.440;2023-01-29T09:23:29;16.47;;;8.73;;
13197;SDS011;6664;52.514;13.440;2023-01-29T09:26:15;16.37;;;7.53;;
13197;SDS011;6664;52.514;13.440;2023-01-29T09:29:03;10.90;;;7.57;;
13197;SDS011;6664;52.514;13.440;2023-01-29T09:31:48;13.97;;;7.87;;
13197;SDS011;6664;52.514;13.440;2023-01-29T09:34:34;12.40;;;8.67;;
13197;SDS011;6664;52.514;13.440;2023-01-29T09:37:20;15.83;;;9.33;;
13197;SDS011;6664;52.514;13.440;2023-01-29T09:40:09;17.40;;;9.00;;
13197;SDS011;6664;52.514;13.440;2023-01-29T09:43:37;13.47;;;9.17;;
13197;SDS011;6664;52.514;13.440;2023-01-29T09:46:40;15.63;;;7.80;;
13197;SDS011;6664;52.514;13.440;2023-01-29T09:49:33;12.70;;;7.70;;
13197;SDS011;6664;52.514;13.440;2023-01-29T09:52:23;17.20;;;9.20;;
13197;SDS011;6664;52.514;13.440;2023-01-29T09:55:14;13.57;;;8.20;;
13197;SDS011;6664;52.514;13.440;2023-01-29T09:58:18;13.03;;;9.63;;
13197;SDS011;6664;52.514;13.440;2023-01-29T10:01:12;10.53;;;6.80;;
13197;SDS011;6664;52.514;13.440;2023-01-29T10:04:26;12.83;;;7.60;;
13197;SDS011;6664;52.514;13.440;2023-01-29T10:07:29;11.37;;;6.80;;
13197;SDS011;6664;52.514;13.440;2023-01-29T10:10:49;12.60;;;7.50;;
13197;SDS011;6664;52.514;13.440;2023-01-29T10:20:32;12.43;;;7.60;;
13197;SDS011;6664;52.514;13.440;2023-01-29T10:26:22;10.97;;;7.00;;
13197;SDS011;6664;52.514;13.440;2023-01-29T10:29:13;9.80;;;6.33;;
13197;SDS011;6664;52.514;13.440;2023-01-29T10:32:02;13.20;;;6.77;;
13197;SDS011;6664;52.514;13.440;2023-01-29T10:37:41;9.43;;;6.90;;
13197;SDS011;6664;52.514;13.440;2023-01-29T10:40:36;9.80;;;6.30;;
13197;SDS011;6664;52.514;13.440;2023-01-29T10:58:36;9.30;;;6.43;;
13197;SDS011;6664;52.514;13.440;2023-01-29T11:01:30;10.73;;;6.30;;
13197;SDS011;6664;52.514;13.440;2023-01-29T11:04:16;8.27;;;6.13;;
13197;SDS011;6664;52.514;13.440;2023-01-29T11:07:02;7.53;;;6.23;;
13197;SDS011;6664;52.514;13.440;2023-01-29T11:09:53;10.23;;;5.80;;
13197;SDS011;6664;52.514;13.440;2023-01-29T11:13:01;12.83;;;7.60;;
13197;SDS011;6664;52.514;13.440;2023-01-29T11:15:51;10.97;;;6.00;;
13197;SDS011;6664;52.514;13.440;2023-01-29T11:24:42;8.10;;;5.73;;
13197;SDS011;6664;52.514;13.440;2023-01-29T11:27:32;7.13;;;5.60;;
13197;SDS011;6664;52.514;13.440;2023-01-29T11:36:28;10.43;;;6.57;;
13197;SDS011;6664;52.514;13.440;2023-01-29T11:39:19;8.20;;;4.83;;
13197;SDS011;6664;52.514;13.440;2023-01-29T11:42:13;7.47;;;5.70;;
13197;SDS011;6664;52.514;13.440;2023-01-29T11:45:16;9.03;;;6.13;;
13197;SDS011;6664;52.514;13.440;2023-01-29T11:48:19;7.50;;;5.83;;
13197;SDS011;6664;52.514;13.440;2023-01-29T11:51:07;7.63;;;5.63;;
13197;SDS011;6664;52.514;13.440;2023-01-29T11:53:57;11.33;;;5.97;;
13197;SDS011;6664;52.514;13.440;2023-01-29T11:56:45;8.67;;;5.70;;
13197;SDS011;6664;52.514;13.440;2023-01-29T11:59:42;6.83;;;5.47;;
13197;SDS011;6664;52.514;13.440;2023-01-29T12:02:37;7.60;;;5.57;;
13197;SDS011;6664;52.514;13.440;2023-01-29T12:05:30;9.50;;;5.87;;
13197;SDS011;6664;52.514;13.440;2023-01-29T12:08:16;12.57;;;5.53;;
13197;SDS011;6664;52.514;13.440;2023-01-29T12:11:06;8.07;;;5.60;;
13197;SDS011;6664;52.514;13.440;2023-01-29T12:13:56;8.00;;;5.93;;
13197;SDS011;6664;52.514;13.440;2023-01-29T12:16:55;9.33;;;5.20;;
13197;SDS011;6664;52.514;13.440;2023-01-29T12:19:52;9.73;;;5.23;;
13197;SDS011;6664;52.514;13.440;2023-01-29T12:22:47;8.60;;;5.90;;
13197;SDS011;6664;52.514;13.440;2023-01-29T12:35:20;8.20;;;5.90;;
13197;SDS011;6664;52.514;13.440;2023-01-29T12:38:13;7.60;;;5.17;;
13197;SDS011;6664;52.514;13.440;2023-01-29T12:41:05;10.53;;;5.80;;
13197;SDS011;6664;52.514;13.440;2023-01-29T12:43:56;6.87;;;4.73;;
13197;SDS011;6664;52.514;13.440;2023-01-29T12:46:51;9.53;;;5.20;;
13197;SDS011;6664;52.514;13.440;2023-01-29T12:49:40;9.30;;;5.97;;
13197;SDS011;6664;52.514;13.440;2023-01-29T12:52:40;7.90;;;5.80;;
13197;SDS011;6664;52.514;13.440;2023-01-29T12:55:35;7.90;;;4.77;;
13197;SDS011;6664;52.514;13.440;2023-01-29T12:58:31;7.80;;;4.80;;
13197;SDS011;6664;52.514;13.440;2023-01-29T13:04:30;7.33;;;5.00;;
13197;SDS011;6664;52.514;13.440;2023-01-29T13:07:34;10.90;;;5.13;;
13197;SDS011;6664;52.514;13.440;2023-01-29T13:10:30;12.00;;;5.80;;
13197;SDS011;6664;52.514;13.440;2023-01-29T13:16:12;8.60;;;5.37;;
13197;SDS011;6664;52.514;13.440;2023-01-29T13:19:04;11.23;;;6.30;;
13197;SDS011;6664;52.514;13.440;2023-01-29T13:22:02;6.33;;;4.90;;
13197;SDS011;6664;52.514;13.440;2023-01-29T13:24:54;6.43;;;5.00;;
13197;SDS011;6664;52.514;13.440;2023-01-29T13:27:51;8.90;;;5.10;;
13197;SDS011;6664;52.514;13.440;2023-01-29T13:30:38;6.93;;;4.80;;
13197;SDS011;6664;52.514;13.440;2023-01-29T13:33:24;7.53;;;5.20;;
13197;SDS011;6664;52.514;13.440;2023-01-29T13:36:13;6.43;;;4.47;;
13197;SDS011;6664;52.514;13.440;2023-01-29T13:39:07;7.97;;;5.50;;
13197;SDS011;6664;52.514;13.440;2023-01-29T13:42:14;7.43;;;5.17;;
13197;SDS011;6664;52.514;13.440;2023-01-29T13:45:06;9.17;;;6.00;;
13197;SDS011;6664;52.514;13.440;2023-01-29T13:47:54;9.23;;;6.20;;
13197;SDS011;6664;52.514;13.440;2023-01-29T13:51:08;8.90;;;4.80;;
13197;SDS011;6664;52.514;13.440;2023-01-29T13:54:02;8.50;;;5.37;;
13197;SDS011;6664;52.514;13.440;2023-01-29T13:59:50;8.27;;;5.20;;
13197;SDS011;6664;52.514;13.440;2023-01-29T14:02:37;6.57;;;5.43;;
13197;SDS011;6664;52.514;13.440;2023-01-29T14:14:49;7.70;;;5.43;;
13197;SDS011;6664;52.514;13.440;2023-01-29T14:17:29;8.07;;;5.37;;
13197;SDS011;6664;52.514;13.440;2023-01-29T14:20:16;10.70;;;6.20;;
13197;SDS011;6664;52.514;13.440;2023-01-29T14:23:04;12.70;;;6.20;;
13197;SDS011;6664;52.514;13.440;2023-01-29T14:25:52;8.53;;;5.90;;
13197;SDS011;6664;52.514;13.440;2023-01-29T14:28:40;10.23;;;6.57;;
13197;SDS011;6664;52.514;13.440;2023-01-29T14:34:43;12.27;;;6.00;;
13197;SDS011;6664;52.514;13.440;2023-01-29T14:37:32;13.07;;;6.27;;
13197;SDS011;6664;52.514;13.440;2023-01-29T14:40:21;9.57;;;6.90;;
13197;SDS011;6664;52.514;13.440;2023-01-29T14:43:18;11.63;;;7.60;;
13197;SDS011;6664;52.514;13.440;2023-01-29T14:52:36;13.20;;;8.17;;
13197;SDS011;6664;52.514;13.440;2023-01-29T14:55:44;10.47;;;6.87;;
13197;SDS011;6664;52.514;13.440;2023-01-29T14:58:52;11.07;;;7.07;;
13197;SDS011;6664;52.514;13.440;2023-01-29T15:01:54;9.07;;;6.50;;
13197;SDS011;6664;52.514;13.440;2023-01-29T15:04:48;18.40;;;7.00;;
13197;SDS011;6664;52.514;13.440;2023-01-29T15:10:52;9.40;;;7.33;;
13197;SDS011;6664;52.514;13.440;2023-01-29T15:14:11;13.13;;;6.50;;
13197;SDS011;6664;52.514;13.440;2023-01-29T15:20:28;9.07;;;6.73;;
13197;SDS011;6664;52.514;13.440;2023-01-29T15:23:29;10.30;;;7.57;;
13197;SDS011;6664;52.514;13.440;2023-01-29T15:26:22;14.23;;;8.53;;
13197;SDS011;6664;52.514;13.440;2023-01-29T15:29:19;11.63;;;7.50;;
13197;SDS011;6664;52.514;13.440;2023-01-29T15:32:12;10.10;;;6.93;;
13197;SDS011;6664;52.514;13.440;2023-01-29T15:35:05;12.30;;;7.60;;
13197;SDS011;6664;52.514;13.440;2023-01-29T15:41:20;10.27;;;6.50;;
13197;SDS011;6664;52.514;13.440;2023-01-29T15:44:18;12.27;;;7.37;;
13197;SDS011;6664;52.514;13.440;2023-01-29T15:47:08;8.33;;;6.07;;
13197;SDS011;6664;52.514;13.440;2023-01-29T15:49:54;11.30;;;7.43;;
13197;SDS011;6664;52.514;13.440;2023-01-29T15:52:41;11.03;;;7.30;;
13197;SDS011;6664;52.514;13.440;2023-01-29T15:55:29;10.67;;;6.93;;
13197;SDS011;6664;52.514;13.440;2023-01-29T15:58:26;13.90;;;7.17;;
13197;SDS011;6664;52.514;13.440;2023-01-29T16:01:14;10.83;;;6.60;;
13197;SDS011;6664;52.514;13.440;2023-01-29T16:04:00;9.07;;;6.50;;
13197;SDS011;6664;52.514;13.440;2023-01-29T16:06:47;11.70;;;7.63;;
13197;SDS011;6664;52.514;13.440;2023-01-29T16:09:35;10.20;;;7.30;;
13197;SDS011;6664;52.514;13.440;2023-01-29T16:12:24;9.93;;;6.27;;
13197;SDS011;6664;52.514;13.440;2023-01-29T16:15:13;11.83;;;7.73;;
13197;SDS011;6664;52.514;13.440;2023-01-29T16:18:17;13.73;;;6.57;;
13197;SDS011;6664;52.514;13.440;2023-01-29T16:21:27;8.37;;;6.40;;
13197;SDS011;6664;52.514;13.440;2023-01-29T16:24:27;14.37;;;7.50;;
13197;SDS011;6664;52.514;13.440;2023-01-29T16:27:17;11.80;;;6.73;;
13197;SDS011;6664;52.514;13.440;2023-01-29T16:30:03;9.77;;;5.93;;
13197;SDS011;6664;52.514;13.440;2023-01-29T16:32:50;11.00;;;7.43;;
13197;SDS011;6664;52.514;13.440;2023-01-29T16:35:36;13.73;;;7.90;;
13197;SDS011;6664;52.514;13.440;2023-01-29T16:38:27;13.10;;;7.80;;
13197;SDS011;6664;52.514;13.440;2023-01-29T16:47:10;11.00;;;6.60;;
13197;SDS011;6664;52.514;13.440;2023-01-29T16:49:59;15.60;;;8.07;;
13197;SDS011;6664;52.514;13.440;2023-01-29T16:56:10;10.77;;;7.30;;
13197;SDS011;6664;52.514;13.440;2023-01-29T16:58:56;12.77;;;7.53;;
13197;SDS011;6664;52.514;13.440;2023-01-29T17:01:45;10.80;;;6.43;;
13197;SDS011;6664;52.514;13.440;2023-01-29T17:04:35;10.23;;;7.20;;
13197;SDS011;6664;52.514;13.440;2023-01-29T17:07:26;13.73;;;7.53;;
13197;SDS011;6664;52.514;13.440;2023-01-29T17:10:15;9.50;;;6.70;;
13197;SDS011;6664;52.514;13.440;2023-01-29T17:13:07;12.30;;;7.60;;
13197;SDS011;6664;52.514;13.440;2023-01-29T17:16:01;11.63;;;7.03;;
13197;SDS011;6664;52.514;13.440;2023-01-29T17:18:59;15.67;;;7.53;;
13197;SDS011;6664;52.514;13.440;2023-01-29T17:21:46;19.33;;;6.87;;
13197;SDS011;6664;52.514;13.440;2023-01-29T17:24:32;12.23;;;7.43;;
13197;SDS011;6664;52.514;13.440;2023-01-29T17:27:18;10.90;;;6.37;;
13197;SDS011;6664;52.514;13.440;2023-01-29T17:30:05;11.17;;;7.33;;
13197;SDS011;6664;52.514;13.440;2023-01-29T17:32:59;9.83;;;7.33;;
13197;SDS011;6664;52.514;13.440;2023-01-29T17:35:47;12.63;;;8.03;;
13197;SDS011;6664;52.514;13.440;2023-01-29T17:38:33;8.90;;;6.43;;
13197;SDS011;6664;52.514;13.440;2023-01-29T17:41:23;13.10;;;7.33;;
13197;SDS011;6664;52.514;13.440;2023-01-29T17:44:11;10.23;;;7.23;;
13197;SDS011;6664;52.514;13.440;2023-01-29T17:46:56;14.07;;;7.13;;
13197;SDS011;6664;52.514;13.440;2023-01-29T17:49:44;14.83;;;6.97;;
13197;SDS011;6664;52.514;13.440;2023-01-29T17:52:30;10.43;;;6.60;;
13197;SDS011;6664;52.514;13.440;2023-01-29T17:55:16;10.10;;;7.17;;
13197;SDS011;6664;52.514;13.440;2023-01-29T17:58:04;8.90;;;6.10;;
13197;SDS011;6664;52.514;13.440;2023-01-29T18:00:50;13.10;;;6.47;;
13197;SDS011;6664;52.514;13.440;2023-01-29T18:03:36;13.10;;;7.50;;
13197;SDS011;6664;52.514;13.440;2023-01-29T18:06:26;8.50;;;6.33;;
13197;SDS011;6664;52.514;13.440;2023-01-29T18:09:14;12.03;;;6.87;;
13197;SDS011;6664;52.514;13.440;2023-01-29T18:12:04;12.10;;;7.43;;
13197;SDS011;6664;52.514;13.440;2023-01-29T18:14:54;10.13;;;7.10;;
13197;SDS011;6664;52.514;13.440;2023-01-29T18:17:40;11.63;;;7.17;;
13197;SDS011;6664;52.514;13.440;2023-01-29T18:20:25;8.90;;;5.97;;
13197;SDS011;6664;52.514;13.440;2023-01-29T18:23:11;12.10;;;7.00;;
13197;SDS011;6664;52.514;13.440;2023-01-29T18:25:57;8.10;;;5.70;;
13197;SDS011;6664;52.514;13.440;2023-01-29T18:28:43;9.87;;;6.43;;
13197;SDS011;6664;52.514;13.440;2023-01-29T18:31:29;10.77;;;6.47;;
13197;SDS011;6664;52.514;13.440;2023-01-29T18:34:15;7.53;;;5.50;;
13197;SDS011;6664;52.514;13.440;2023-01-29T18:37:00;9.63;;;6.57;;
13197;SDS011;6664;52.514;13.440;2023-01-29T18:39:45;11.70;;;6.30;;
13197;SDS011;6664;52.514;13.440;2023-01-29T18:42:31;6.57;;;4.90;;
13197;SDS011;6664;52.514;13.440;2023-01-29T18:45:19;11.50;;;6.60;;
13197;SDS011;6664;52.514;13.440;2023-01-29T18:48:08;10.83;;;6.20;;
13197;SDS011;6664;52.514;13.440;2023-01-29T18:50:53;8.40;;;5.63;;
13197;SDS011;6664;52.514;13.440;2023-01-29T18:53:39;8.47;;;5.93;;
13197;SDS011;6664;52.514;13.440;2023-01-29T18:56:24;8.77;;;6.10;;
13197;SDS011;6664;52.514;13.440;2023-01-29T18:59:10;7.57;;;5.53;;
13197;SDS011;6664;52.514;13.440;2023-01-29T19:01:56;7.90;;;6.03;;
13197;SDS011;6664;52.514;13.440;2023-01-29T19:04:41;8.87;;;5.90;;
13197;SDS011;6664;52.514;13.440;2023-01-29T19:07:27;7.93;;;6.33;;
13197;SDS011;6664;52.514;13.440;2023-01-29T19:10:12;9.63;;;5.90;;
13197;SDS011;6664;52.514;13.440;2023-01-29T19:13:00;7.00;;;5.17;;